x

New London Ledge Ct - Ledge Light Weather Station (ldlc3) Weather Station

1:55pm - Sun 19th Apr 2015 All times are EDT. -4 hours from GMT.

  • Wind
    8mph, 10mph gusts
  • 空気 Temp 47°f
  • Sea Pressure 1024.1mb
  • New London Ledge Ct - Ledge Light Weather Station
  • New London Ledge Ct - Ledge Light Weather Station

More Historic Weather Station data

Upgrade to MSW Pro to gain access to the past 30 days of data for over 8000 Wavebouys and Weather Stations around the globe.

Join Pro

Comparision Forecast

View Surf forecast
   
Sun 04/19 1:55pm 8 10 mph 1024.1mb 47f
1:40pm 11 13 mph 1024.1mb 47f
1:25pm 14 16 mph 1024mb 47f
1:10pm 13 14 mph 1024.1mb 46f
12:55pm 15 17 mph 1024.1mb 46f
12:40pm 14 15 mph 1024.3mb 46f
12:25pm 13 14 mph 1024.5mb 46f
12:10pm 11 13 mph 1024.6mb 46f
11:55am 14 15 mph 1024.6mb 46f
11:40am 14 15 mph 1024.7mb 46f
11:25am 11 14 mph 1024.7mb 47f
11:10am 11 13 mph 1024.7mb 47f
10:55am 11 13 mph 1024.6mb 47f
10:40am 11 13 mph 1024.5mb 47f
10:25am 9 11 mph 1024.4mb 50f
10:10am 9 10 mph 1024.2mb 48f
9:55am 6 7 mph 1024.2mb 49f
9:40am 3 7 mph 1024.2mb 52f
9:25am 7 10 mph 1024.1mb 51f
9:10am 8 11 mph 1024mb 51f
8:55am 11 14 mph 1023.8mb 50f
8:40am 13 17 mph 1023.6mb 50f
8:25am 13 17 mph 1023.5mb 49f
8:10am 15 22 mph 1023.2mb 49f
7:55am 14 18 mph 1022.9mb 49f
7:40am 14 18 mph 1022.8mb 49f
7:25am 14 20 mph 1022.7mb 49f
7:10am 17 22 mph 1022.4mb 48f
6:55am 15 18 mph 1022.4mb 48f
6:40am 11 15 mph 1022.3mb 47f
6:25am 9 11 mph 1022mb 47f
6:10am 10 15 mph 1021.7mb 47f
5:55am 11 17 mph 1021.6mb 47f
5:40am 9 11 mph 1021.3mb 47f
5:25am 8 14 mph 1020.9mb 47f
5:10am 7 9 mph 1020.8mb 47f
4:55am 6 7 mph 1020.7mb 47f
4:40am 5 7 mph 1020.6mb 48f
4:25am 6 8 mph 1020.2mb 49f
4:10am 5 7 mph 1020.1mb 48f
3:55am 3 5 mph 1020mb 49f
3:40am 2 3 mph 1019.7mb 49f
3:25am 2
mph
1019.5mb 49f
3:10am 2
mph
1019.2mb 50f
2:55am 2
mph
1019mb 50f
2:40am 3 5 mph 1018.8mb 50f
2:25am 2 3 mph 1018.8mb 51f
2:10am 2 3 mph 1018.8mb 51f
1:55am 8 9 mph 1018.5mb 51f
1:40am 9
mph
1018.5mb 52f
1:25am 10 11 mph 1018.3mb 52f
1:10am 10 11 mph 1018mb 53f
Sat 04/18 7:55pm 15 22 mph 1011.8mb 60f
7:40pm 7 9 mph 1011.4mb 58f
7:25pm 16 18 mph 1010.6mb 56f
7:10pm 21 23 mph 1009.8mb 56f
6:55pm 18 22 mph 1009.8mb 56f
6:40pm 16 18 mph 1009.7mb 56f
6:25pm 20 21 mph 1009.6mb 57f
6:10pm 22 25 mph 1009.4mb 56f
5:55pm 21 23 mph 1009.2mb 55f
5:40pm 21 22 mph 1009.1mb 56f
5:25pm 22 24 mph 1009mb 57f
5:10pm 20 23 mph 1009.1mb 57f
4:55pm 13 15 mph 1009.4mb 56f
4:40pm 10 11 mph 1009.7mb 57f
4:25pm 13 18 mph 1009.6mb 58f
4:10pm 13 14 mph 1009.8mb 55f
3:55pm 21 22 mph 1009.8mb 56f
3:40pm 20 22 mph 1009.8mb 56f
3:25pm 22 25 mph 1009.9mb 56f
3:10pm 20 21 mph 1010.2mb 55f
2:55pm 17 20 mph 1010.4mb 54f
2:40pm 21
mph
1010.6mb 54f
2:25pm 18 21 mph 1010.9mb 52f
2:10pm 20 21 mph 1010.9mb 52f
1:55pm 22 24 mph 1010.9mb 53f
1:40pm 17 22 mph 1011.3mb 51f
1:25pm 20 22 mph 1011.4mb 52f
1:10pm 15 16 mph 1012mb 48f
12:55pm 21 23 mph 1012.1mb 50f
12:40pm 16 18 mph 1012.4mb 49f
12:25pm 17 18 mph 1012.7mb 49f
12:10pm 17 18 mph 1013.1mb 47f
11:55am 17 20 mph 1013.3mb 48f
11:40am 20 22 mph 1013.3mb 51f
11:25am 17 20 mph 1013.6mb 48f
11:10am 21 23 mph 1013.5mb 47f
10:55am 16 17 mph 1013.9mb 47f
10:40am 15 16 mph 1014mb 46f
10:25am 13 15 mph 1014.1mb 45f
10:10am 10 13 mph 1014.2mb 45f
9:55am 13 14 mph 1014.2mb 46f
9:40am 15 16 mph 1014.2mb 47f
9:25am 15 17 mph 1014.1mb 47f
9:10am 14 16 mph 1014.2mb 46f
8:55am 13
mph
1014.2mb 46f
8:40am 11 13 mph 1014.2mb 46f
8:25am 11 13 mph 1014.2mb 46f
8:10am 11
mph
1014.1mb 46f
7:55am 11 14 mph 1014.1mb 47f
7:40am 10 11 mph 1014.1mb 47f
7:25am 8 9 mph 1014mb 49f
7:10am 2 5 mph 1014.2mb 51f
6:55am 8 10 mph 1014mb 51f
6:40am 11
mph
1013.5mb 53f
6:25am 11 13 mph 1013.5mb 53f
6:10am 14 15 mph 1013.1mb 52f
5:55am 10 11 mph 1013.2mb 51f
5:40am 11
mph
1013.1mb 52f
5:25am 8 9 mph 1013.1mb 52f
5:10am 10
mph
1013mb 54f
4:55am 9 10 mph 1013mb 54f
4:40am 7 8 mph 1013mb 54f
4:25am 5 6 mph 1013mb 54f
4:10am 8 9 mph 1013mb 55f
3:55am 8 9 mph 1013mb 54f
3:40am 7 9 mph 1013mb 55f
3:25am 6 7 mph 1013mb 54f
3:10am 3
mph
1013mb 53f
2:55am 3 6 mph 1012.8mb 55f
2:40am 9 10 mph 1013mb 55f
2:25am 9 10 mph 1013.1mb 56f
2:10am 9 11 mph 1013.2mb 56f
1:55am 7 10 mph 1013.4mb 54f
1:40am 9 11 mph 1013.5mb 55f
1:25am 7 9 mph 1013.5mb 54f
1:10am 6 7 mph 1013.7mb 52f
Fri 04/17 7:55pm 6 7 mph 1012.4mb 54f
7:40pm 6 8 mph 1012.4mb 55f
7:25pm 5
mph
1012.4mb 54f
7:10pm 7
mph
1012.5mb 54f
6:55pm 7 8 mph 1012.3mb 54f
6:40pm 9 10 mph 1012.1mb 53f
6:25pm 10 11 mph 1011.9mb 52f
6:10pm 10 11 mph 1011.8mb 51f
5:55pm 13
mph
1011.8mb 51f
5:40pm 13 15 mph 1011.9mb 50f
5:25pm 13 14 mph 1011.9mb 51f
5:10pm 13 14 mph 1012.1mb 51f
4:55pm 15
mph
1012.4mb 51f
4:40pm 13
mph
1012.5mb 52f
4:25pm 17 20 mph 1012.6mb 52f
4:10pm 15 16 mph 1012.7mb 53f
3:55pm 15 16 mph 1012.7mb 53f
3:40pm 16 17 mph 1012.8mb 52f
3:25pm 14 17 mph 1013mb 53f
3:10pm 13 16 mph 1013.4mb 52f
2:55pm 13 14 mph 1013.5mb 50f
2:40pm 11 14 mph 1013.6mb 50f
2:25pm 13 15 mph 1013.8mb 48f
2:10pm 14 16 mph 1013.9mb 49f
1:55pm 17 18 mph 1014.1mb 50f
1:40pm 17 20 mph 1014.3mb 50f
1:25pm 17 18 mph 1014.4mb 49f
1:10pm 16 18 mph 1014.8mb 49f
12:55pm 15 17 mph 1015.1mb 49f
12:40pm 15 17 mph 1015.3mb 50f
12:25pm 13 14 mph 1015.5mb 50f
12:10pm 14 15 mph 1015.5mb 50f
11:55am 13 14 mph 1015.7mb 50f
11:40am 14
mph
1015.9mb 49f
11:25am 11 14 mph 1016.3mb 49f
11:10am 14 16 mph 1016.4mb 47f
10:55am 18 20 mph 1016.5mb 48f
10:40am 20 21 mph 1016.6mb 48f
10:25am 20 21 mph 1016.7mb 48f
10:10am 22
mph
1016.9mb 48f
9:55am 20 21 mph 1017.2mb 48f
9:40am 17 18 mph 1017.6mb 48f
9:25am 14 15 mph 1017.9mb 48f
9:10am 11 13 mph 1018.3mb 47f
8:55am 11 13 mph 1018.5mb 47f
8:40am 6 7 mph 1018.8mb 47f
8:25am 9 10 mph 1018.9mb 47f
8:10am 9
mph
1019.1mb 46f
7:55am 7 8 mph 1019.3mb 46f
7:40am 6 7 mph 1019.4mb 47f
7:25am 7 8 mph 1019.5mb 46f
7:10am 7 8 mph 1019.5mb 47f
6:55am 6 8 mph 1019.5mb 48f
6:40am 6 7 mph 1019.6mb 49f
6:25am 7 8 mph 1019.5mb 49f
6:10am 9
mph
1019.5mb 50f
5:55am 8
mph
1019.4mb 51f
5:40am 8 9 mph 1019.5mb 51f
5:25am 8 9 mph 1019.6mb 49f
5:10am 7 8 mph 1019.8mb 50f
4:55am 7 8 mph 1020.1mb 50f
4:40am 5 6 mph 1020.1mb 49f
4:25am 2 3 mph 1020.3mb 49f
4:10am 1 2 mph 1020.6mb 49f
3:55am 1 2 mph 1020.7mb 48f
3:40am 1 2 mph 1021mb 48f
3:25am 2
mph
1021.2mb 48f
3:10am 2 3 mph 1021.6mb 48f
2:55am 2 3 mph 1022mb 48f
2:40am 3
mph
1022.3mb 48f
2:25am 2 3 mph 1022.5mb 48f
2:10am 3
mph
1022.9mb 48f
1:55am 2 3 mph 1023.1mb 48f
1:40am 3 5 mph 1023.4mb 47f
1:25am 2 3 mph 1023.7mb 47f
1:10am 6 7 mph 1023.9mb 47f
Thu 04/16 7:55pm 5 6 mph 1027.2mb 44f
7:40pm 6 7 mph 1027.2mb 44f
7:25pm 8 9 mph 1027.3mb 44f
7:10pm 10
mph
1027.3mb 44f
6:55pm 11 13 mph 1027.4mb 44f
6:40pm 14 15 mph 1027.4mb 44f
6:25pm 13
mph
1027.8mb 44f
6:10pm 11 13 mph 1027.9mb 44f
5:55pm 11 13 mph 1028mb 44f
5:40pm 10 11 mph 1028.3mb 45f
5:25pm 11
mph
1028.3mb 46f
5:10pm 10 11 mph 1028.4mb 46f
4:55pm 10 11 mph 1028.6mb 46f
4:40pm 11
mph
1028.7mb 46f
4:25pm 11 13 mph 1028.9mb 45f
4:10pm 13
mph
1029mb 46f
3:55pm 13
mph
1029.1mb 46f
3:40pm 13
mph
1029.3mb 46f
3:25pm 13 14 mph 1029.4mb 46f
3:10pm 13 14 mph 1029.8mb 45f
2:55pm 14 15 mph 1030.1mb 45f
2:40pm 14 15 mph 1030.2mb 46f
2:25pm 14 15 mph 1030.2mb 47f
2:10pm 14 15 mph 1030.2mb 47f
1:55pm 14 15 mph 1030.6mb 47f
1:40pm 11 13 mph 1030.7mb 47f
1:25pm 10 11 mph 1030.9mb 47f
1:10pm 9 10 mph 1031mb 47f
12:55pm 10 11 mph 1031.2mb 47f
12:40pm 9 10 mph 1031.3mb 47f
12:25pm 5 6 mph 1031.4mb 46f
12:10pm 6 7 mph 1031.6mb 47f
11:55am 9 10 mph 1031.5mb 48f
11:40am 10 11 mph 1031.6mb 48f
11:25am 10 11 mph 1031.7mb 49f
11:10am 10
mph
1031.8mb 49f
10:55am 7 8 mph 1032.1mb 48f
10:40am 7 9 mph 1032.2mb 48f
10:25am 11
mph
1032.1mb 49f
10:10am 10 13 mph 1032mb 49f
9:55am 9 11 mph 1032mb 49f
9:40am 7 9 mph 1032.1mb 49f
9:25am 6
mph
1032.2mb 49f
9:10am 5 6 mph 1032mb 50f
8:55am 3 5 mph 1032.1mb 51f
8:40am 5 7 mph 1032mb 50f
8:25am 7
mph
1031.9mb 48f
8:10am 8 9 mph 1031.7mb 47f
7:55am 9 10 mph 1031.5mb 46f
7:40am 9 10 mph 1031.2mb 46f
7:25am 10 11 mph 1031.1mb 45f
7:10am 11
mph
1030.9mb 45f
6:55am 11 13 mph 1030.7mb 45f
6:40am 10 11 mph 1030.6mb 45f
6:25am 8 9 mph 1030.6mb 44f
6:10am 7
mph
1030.5mb 43f
5:55am 7 8 mph 1030.3mb 44f
5:40am 6 7 mph 1030.3mb 45f
5:25am 6
mph
1030mb 46f
5:10am 5 6 mph 1029.7mb 46f
4:55am 6 7 mph 1029.3mb 47f
4:40am 6 7 mph 1029mb 48f
4:25am 5 6 mph 1028.8mb 49f
4:10am 5 6 mph 1028.6mb 49f
3:55am 6
mph
1028.7mb 49f
3:40am 6 7 mph 1028.7mb 49f
3:25am 5 7 mph 1028.9mb 50f
3:10am 3 5 mph 1028.9mb 50f
2:55am 6 7 mph 1028.6mb 50f
2:40am 8 9 mph 1028.5mb 51f
2:25am 10 15 mph 1028.7mb 52f
2:10am 13 17 mph 1028.5mb 52f
1:55am 10 14 mph 1028.5mb 52f
1:40am 3 5 mph 1028.6mb 49f
1:25am 3
mph
1028.4mb 49f
1:10am 3
mph
1028.1mb 49f
Wed 04/15 7:55pm 9 11 mph 1022.7mb 54f
7:40pm 13 17 mph 1022.3mb 64f
7:25pm 18 22 mph 1022.1mb 64f
7:10pm 21 25 mph 1021.9mb 64f
6:55pm 23 29 mph 1021.4mb 64f
6:40pm 23 29 mph 1021.2mb 64f